createdAt,value
2023-01-13T00:00:38.650Z,12.09
2023-01-13T00:01:38.492Z,12.05
2023-01-13T00:02:38.500Z,12.09
2023-01-13T00:03:38.423Z,12.09
2023-01-13T00:04:38.444Z,12.12
2023-01-13T00:05:38.404Z,12.05
2023-01-13T00:06:38.387Z,11.98
2023-01-13T00:07:38.451Z,11.98
2023-01-13T00:08:38.377Z,11.99
2023-01-13T00:09:38.360Z,11.96
2023-01-13T00:10:38.346Z,11.95
2023-01-13T00:11:38.338Z,11.90
2023-01-13T00:12:38.339Z,11.86
2023-01-13T00:13:38.319Z,11.83
2023-01-13T00:14:38.316Z,11.80
2023-01-13T00:15:38.330Z,11.83
2023-01-13T00:16:38.279Z,11.79
2023-01-13T00:17:38.295Z,11.78
2023-01-13T00:18:38.259Z,11.76
2023-01-13T00:19:38.249Z,11.75
2023-01-13T00:20:38.239Z,11.79
2023-01-13T00:21:38.220Z,11.79
2023-01-13T00:22:38.236Z,11.73
2023-01-13T00:23:38.207Z,11.72
2023-01-13T00:24:38.190Z,11.69
2023-01-13T00:25:38.202Z,11.70
2023-01-13T00:26:38.170Z,11.72
2023-01-13T00:27:38.170Z,11.73
2023-01-13T00:28:38.150Z,11.73
2023-01-13T00:29:38.150Z,11.76
2023-01-13T00:30:38.122Z,11.73
2023-01-13T00:31:38.189Z,11.72
2023-01-13T00:32:38.125Z,11.73
2023-01-13T00:33:38.093Z,11.78
2023-01-13T00:34:38.082Z,11.78
2023-01-13T00:35:38.085Z,11.76
2023-01-13T00:36:38.064Z,11.75
2023-01-13T00:37:38.079Z,11.75
2023-01-13T00:38:38.043Z,11.73
2023-01-13T00:39:38.050Z,11.70
2023-01-13T00:40:38.023Z,11.67
2023-01-13T00:41:38.020Z,11.70
2023-01-13T00:42:38.011Z,11.76
2023-01-13T00:43:38.006Z,11.75
2023-01-13T00:44:37.994Z,11.76
2023-01-13T00:45:37.964Z,11.75
2023-01-13T00:46:38.065Z,11.73
2023-01-13T00:47:37.960Z,11.73
2023-01-13T00:48:37.939Z,11.72
2023-01-13T00:49:37.928Z,11.75
2023-01-13T00:50:37.926Z,11.75
2023-01-13T00:51:37.905Z,11.72
2023-01-13T00:52:37.922Z,11.73
2023-01-13T00:53:37.885Z,11.72
2023-01-13T00:54:37.874Z,11.70
2023-01-13T00:55:37.875Z,11.72
2023-01-13T00:56:40.849Z,11.69
2023-01-13T00:57:37.849Z,11.67
2023-01-13T00:58:37.838Z,11.65
2023-01-13T00:59:37.826Z,11.65
2023-01-13T01:00:37.851Z,11.62
2023-01-13T01:01:37.958Z,11.64
2023-01-13T01:02:37.876Z,11.60
2023-01-13T01:03:37.778Z,11.60
2023-01-13T01:04:37.778Z,11.60
2023-01-13T01:05:37.775Z,11.57
2023-01-13T01:06:37.778Z,11.54
2023-01-13T01:07:37.760Z,11.51
2023-01-13T01:08:37.733Z,11.49
2023-01-13T01:09:37.709Z,11.46
2023-01-13T01:10:37.719Z,11.44
2023-01-13T01:11:37.689Z,11.43
2023-01-13T01:12:37.696Z,11.39
2023-01-13T01:13:37.685Z,11.37
2023-01-13T01:14:37.676Z,11.35
2023-01-13T01:15:37.659Z,11.32
2023-01-13T01:16:37.640Z,11.24
2023-01-13T01:17:37.649Z,11.14
2023-01-13T01:18:37.619Z,11.00
2023-01-13T01:19:37.638Z,10.82
2023-01-13T01:20:37.607Z,10.78
2023-01-13T01:21:37.599Z,10.74
2023-01-13T01:22:37.602Z,10.67
2023-01-13T01:23:37.574Z,10.61
2023-01-13T01:24:37.553Z,10.59
2023-01-13T01:25:37.567Z,10.53
2023-01-13T01:26:37.538Z,10.51
2023-01-13T01:27:37.539Z,10.52
2023-01-13T01:28:37.527Z,10.51
2023-01-13T01:29:37.514Z,10.53
2023-01-13T01:30:37.492Z,10.47
2023-01-13T01:31:37.518Z,10.42
2023-01-13T01:32:37.515Z,10.40
2023-01-13T01:33:37.467Z,10.34
2023-01-13T01:34:37.454Z,10.30
2023-01-13T01:35:37.453Z,10.29
2023-01-13T01:36:37.432Z,10.29
2023-01-13T01:37:37.449Z,10.33
2023-01-13T01:38:37.413Z,10.33
2023-01-13T01:39:37.401Z,10.36
2023-01-13T01:40:37.385Z,10.33
2023-01-13T01:41:37.385Z,10.33
2023-01-13T01:42:37.382Z,10.30
2023-01-13T01:43:37.368Z,10.32
2023-01-13T01:44:37.357Z,10.29
2023-01-13T01:45:37.327Z,10.27
2023-01-13T01:46:37.430Z,10.29
2023-01-13T01:47:37.331Z,10.25
2023-01-13T01:48:37.295Z,10.30
2023-01-13T01:49:37.287Z,10.40
2023-01-13T01:50:37.291Z,10.41
2023-01-13T01:51:37.260Z,10.41
2023-01-13T01:52:37.278Z,10.41
2023-01-13T01:53:37.248Z,10.40
2023-01-13T01:54:37.235Z,10.42
2023-01-13T01:55:37.232Z,10.42
2023-01-13T01:56:37.218Z,10.48
2023-01-13T01:57:37.213Z,10.52
2023-01-13T01:58:37.209Z,10.47
2023-01-13T01:59:37.181Z,10.45
2023-01-13T02:00:37.187Z,10.44
2023-01-13T02:01:37.227Z,10.41
2023-01-13T02:02:37.177Z,10.38
2023-01-13T02:03:37.138Z,10.33
2023-01-13T02:04:37.123Z,10.27
2023-01-13T02:05:37.119Z,10.20
2023-01-13T02:06:37.100Z,10.14
2023-01-13T02:07:37.100Z,10.07
2023-01-13T02:08:37.090Z,10.02
2023-01-13T02:09:37.066Z,9.94
2023-01-13T02:10:37.072Z,9.90
2023-01-13T02:11:37.054Z,9.86
2023-01-13T02:12:37.040Z,9.84
2023-01-13T02:13:37.030Z,9.83
2023-01-13T02:14:37.025Z,9.81
2023-01-13T02:15:37.003Z,9.78
2023-01-13T02:16:37.031Z,9.78
2023-01-13T02:17:36.993Z,9.75
2023-01-13T02:18:36.973Z,9.74
2023-01-13T02:19:37.049Z,9.71
2023-01-13T02:20:36.965Z,9.69
2023-01-13T02:21:36.953Z,9.68
2023-01-13T02:22:36.941Z,9.66
2023-01-13T02:23:36.915Z,9.64
2023-01-13T02:24:36.921Z,9.58
2023-01-13T02:25:36.904Z,9.58
2023-01-13T02:26:36.896Z,9.61
2023-01-13T02:27:36.885Z,9.58
2023-01-13T02:28:36.871Z,9.57
2023-01-13T02:29:36.851Z,9.53
2023-01-13T02:30:36.846Z,9.51
2023-01-13T02:31:36.945Z,9.51
2023-01-13T02:32:36.848Z,9.53
2023-01-13T02:33:36.803Z,9.60
2023-01-13T02:34:36.794Z,9.60
2023-01-13T02:35:36.784Z,9.60
2023-01-13T02:36:36.881Z,9.60
2023-01-13T02:37:36.784Z,9.64
2023-01-13T02:38:36.766Z,9.64
2023-01-13T02:39:36.748Z,9.65
2023-01-13T02:40:36.787Z,9.68
2023-01-13T02:41:36.745Z,9.71
2023-01-13T02:42:36.717Z,9.69
2023-01-13T02:43:36.707Z,9.64
2023-01-13T02:44:36.697Z,9.65
2023-01-13T02:45:36.751Z,9.60
2023-01-13T02:46:36.738Z,9.56
2023-01-13T02:47:36.689Z,9.54
2023-01-13T02:48:36.662Z,9.54
2023-01-13T02:49:36.644Z,9.54
2023-01-13T02:50:36.629Z,9.50
2023-01-13T02:51:36.622Z,9.50
2023-01-13T02:52:36.623Z,9.50
2023-01-13T02:53:36.599Z,9.47
2023-01-13T02:54:36.606Z,9.43
2023-01-13T02:55:36.567Z,9.42
2023-01-13T02:56:36.563Z,9.46
2023-01-13T02:57:36.555Z,9.43
2023-01-13T02:58:36.539Z,9.46
2023-01-13T02:59:36.452Z,9.43
2023-01-13T03:00:36.409Z,9.46
2023-01-13T03:01:36.491Z,9.50
2023-01-13T03:02:36.455Z,9.50
2023-01-13T03:03:36.387Z,9.50
2023-01-13T03:04:36.375Z,9.47
2023-01-13T03:05:36.404Z,9.47
2023-01-13T03:06:36.348Z,9.50
2023-01-13T03:07:36.370Z,9.51
2023-01-13T03:08:36.328Z,9.48
2023-01-13T03:09:36.323Z,9.50
2023-01-13T03:10:36.309Z,9.54
2023-01-13T03:11:36.305Z,9.51
2023-01-13T03:12:36.289Z,9.50
2023-01-13T03:13:36.278Z,9.47
2023-01-13T03:14:36.264Z,9.42
2023-01-13T03:15:36.258Z,9.48
2023-01-13T03:16:36.274Z,9.50
2023-01-13T03:17:36.253Z,9.54
2023-01-13T03:18:36.222Z,9.48
2023-01-13T03:19:36.223Z,9.46
2023-01-13T03:20:36.202Z,9.46
2023-01-13T03:21:36.305Z,9.47
2023-01-13T03:22:36.197Z,9.47
2023-01-13T03:23:36.189Z,9.47
2023-01-13T03:24:36.166Z,9.43
2023-01-13T03:25:36.148Z,9.50
2023-01-13T03:26:36.137Z,9.53
2023-01-13T03:27:36.132Z,9.50
2023-01-13T03:28:36.125Z,9.50
2023-01-13T03:29:36.112Z,9.48
2023-01-13T03:30:36.132Z,9.48
2023-01-13T03:31:36.092Z,9.47
2023-01-13T03:32:36.084Z,9.40
2023-01-13T03:33:36.061Z,9.36
2023-01-13T03:34:36.065Z,9.35
2023-01-13T03:35:36.061Z,9.31
2023-01-13T03:36:36.038Z,9.32
2023-01-13T03:37:36.038Z,9.31
2023-01-13T03:38:36.016Z,9.31
2023-01-13T03:39:36.005Z,9.31
2023-01-13T03:40:35.984Z,9.29
2023-01-13T03:41:35.971Z,9.21
2023-01-13T03:42:35.974Z,9.18
2023-01-13T03:43:35.974Z,9.17
2023-01-13T03:44:35.945Z,9.13
2023-01-13T03:45:36.043Z,9.13
2023-01-13T03:46:35.923Z,9.14
2023-01-13T03:47:35.922Z,9.14
2023-01-13T03:48:35.900Z,9.13
2023-01-13T03:49:35.920Z,9.17
2023-01-13T03:50:35.898Z,9.23
2023-01-13T03:51:35.868Z,9.31
2023-01-13T03:52:35.879Z,9.28
2023-01-13T03:53:35.843Z,9.29
2023-01-13T03:54:35.830Z,9.31
2023-01-13T03:55:35.823Z,9.32
2023-01-13T03:56:35.826Z,9.32
2023-01-13T03:57:35.813Z,9.31
2023-01-13T03:58:35.793Z,9.35
2023-01-13T03:59:35.798Z,9.36
2023-01-13T04:00:35.794Z,9.38
2023-01-13T04:01:36.018Z,9.35
2023-01-13T04:02:35.754Z,9.32
2023-01-13T04:03:35.754Z,9.33
2023-01-13T04:04:35.719Z,9.36
2023-01-13T04:05:35.717Z,9.36
2023-01-13T04:06:35.696Z,9.36
2023-01-13T04:07:35.710Z,9.33
2023-01-13T04:08:35.688Z,9.35
2023-01-13T04:09:35.668Z,9.42
2023-01-13T04:10:35.657Z,9.38
2023-01-13T04:11:35.653Z,9.35
2023-01-13T04:12:35.634Z,9.33
2023-01-13T04:13:35.632Z,9.33
2023-01-13T04:14:35.619Z,9.33
2023-01-13T04:15:35.667Z,9.28
2023-01-13T04:16:37.629Z,9.21
2023-01-13T04:17:35.631Z,9.23
2023-01-13T04:18:35.569Z,9.23
2023-01-13T04:19:35.578Z,9.18
2023-01-13T04:20:35.550Z,9.13
2023-01-13T04:21:35.539Z,9.10
2023-01-13T04:22:35.542Z,9.05
2023-01-13T04:23:35.528Z,9.01
2023-01-13T04:24:35.496Z,8.99
2023-01-13T04:25:35.551Z,8.94
2023-01-13T04:26:35.498Z,8.94
2023-01-13T04:27:35.496Z,8.94
2023-01-13T04:28:35.461Z,8.94
2023-01-13T04:29:35.454Z,8.91
2023-01-13T04:30:35.439Z,8.87
2023-01-13T04:31:35.441Z,8.83
2023-01-13T04:32:35.439Z,8.83
2023-01-13T04:33:35.413Z,8.83
2023-01-13T04:34:35.401Z,8.79
2023-01-13T04:35:35.392Z,8.84
2023-01-13T04:36:35.371Z,8.92
2023-01-13T04:37:35.460Z,8.86
2023-01-13T04:38:35.360Z,8.89
2023-01-13T04:39:35.341Z,8.81
2023-01-13T04:40:35.335Z,8.80
2023-01-13T04:41:35.322Z,8.81
2023-01-13T04:42:35.312Z,8.77
2023-01-13T04:43:35.307Z,8.71
2023-01-13T04:44:35.332Z,8.70
2023-01-13T04:45:35.289Z,8.71
2023-01-13T04:46:35.347Z,8.73
2023-01-13T04:47:35.293Z,8.77
2023-01-13T04:48:35.243Z,8.73
2023-01-13T04:49:35.244Z,8.74
2023-01-13T04:50:35.225Z,8.73
2023-01-13T04:51:35.213Z,8.73
2023-01-13T04:52:35.204Z,8.74
2023-01-13T04:53:35.234Z,8.68
2023-01-13T04:54:35.193Z,8.68
2023-01-13T04:55:35.175Z,8.70
2023-01-13T04:56:35.155Z,8.71
2023-01-13T04:57:35.175Z,8.70
2023-01-13T04:58:35.158Z,8.76
2023-01-13T04:59:35.138Z,8.71
2023-01-13T05:00:35.131Z,8.66
2023-01-13T05:01:35.306Z,8.70
2023-01-13T05:02:35.156Z,8.74
2023-01-13T05:03:35.086Z,8.77
2023-01-13T05:04:35.144Z,8.73
2023-01-13T05:05:35.065Z,8.80
2023-01-13T05:06:35.111Z,8.84
2023-01-13T05:07:35.063Z,8.76
2023-01-13T05:08:35.040Z,8.74
2023-01-13T05:09:35.018Z,8.71
2023-01-13T05:10:35.006Z,8.62
2023-01-13T05:11:35.065Z,8.56
2023-01-13T05:12:35.015Z,8.55
2023-01-13T05:13:34.976Z,8.56
2023-01-13T05:14:35.004Z,8.58
2023-01-13T05:15:35.016Z,8.61
2023-01-13T05:16:34.980Z,8.56
2023-01-13T05:17:34.948Z,8.56
2023-01-13T05:18:34.966Z,8.53
2023-01-13T05:19:34.929Z,8.52
2023-01-13T05:20:34.907Z,8.50
2023-01-13T05:21:34.988Z,8.56
2023-01-13T05:22:34.949Z,8.59
2023-01-13T05:23:34.870Z,8.58
2023-01-13T05:24:34.869Z,8.55
2023-01-13T05:25:34.859Z,8.52
2023-01-13T05:26:34.858Z,8.52
2023-01-13T05:27:34.828Z,8.48
2023-01-13T05:28:34.846Z,8.47
2023-01-13T05:29:34.814Z,8.43
2023-01-13T05:30:34.791Z,8.45
2023-01-13T05:31:34.923Z,8.44
2023-01-13T05:32:34.782Z,8.44
2023-01-13T05:33:35.817Z,8.45
2023-01-13T05:34:34.750Z,8.41
2023-01-13T05:35:34.749Z,8.38
2023-01-13T05:36:34.830Z,8.38
2023-01-13T05:37:34.731Z,8.36
2023-01-13T05:38:34.699Z,8.33
2023-01-13T05:39:34.690Z,8.28
2023-01-13T05:40:34.692Z,8.28
2023-01-13T05:41:34.682Z,8.25
2023-01-13T05:42:34.671Z,8.22
2023-01-13T05:43:34.697Z,8.22
2023-01-13T05:44:34.671Z,8.22
2023-01-13T05:45:34.635Z,8.19
2023-01-13T05:46:34.660Z,8.16
2023-01-13T05:47:34.632Z,8.15
2023-01-13T05:48:34.591Z,8.18
2023-01-13T05:49:34.592Z,8.22
2023-01-13T05:50:34.582Z,8.22
2023-01-13T05:51:34.575Z,8.23
2023-01-13T05:52:34.563Z,8.22
2023-01-13T05:53:34.568Z,8.20
2023-01-13T05:54:34.532Z,8.28
2023-01-13T05:55:34.531Z,8.30
2023-01-13T05:56:34.522Z,8.37
2023-01-13T05:57:34.515Z,8.36
2023-01-13T05:58:34.512Z,8.36
2023-01-13T05:59:34.483Z,8.37
2023-01-13T06:00:34.474Z,8.43
2023-01-13T06:01:34.528Z,8.45
2023-01-13T06:02:34.516Z,8.45
2023-01-13T06:03:34.433Z,8.44
2023-01-13T06:04:34.470Z,8.48
2023-01-13T06:05:34.414Z,8.52
2023-01-13T06:06:34.421Z,8.52
2023-01-13T06:07:34.406Z,8.53
2023-01-13T06:08:34.389Z,8.55
2023-01-13T06:09:34.371Z,8.53
2023-01-13T06:10:34.380Z,8.48
2023-01-13T06:11:34.357Z,8.47
2023-01-13T06:12:34.357Z,8.50
2023-01-13T06:13:34.330Z,8.48
2023-01-13T06:14:36.491Z,8.44
2023-01-13T06:15:34.310Z,8.40
2023-01-13T06:16:34.390Z,8.37
2023-01-13T06:17:34.296Z,8.33
2023-01-13T06:18:34.273Z,8.29
2023-01-13T06:19:34.267Z,8.28
2023-01-13T06:20:34.259Z,8.30
2023-01-13T06:21:34.252Z,8.26
2023-01-13T06:22:34.250Z,8.22
2023-01-13T06:23:34.225Z,8.19
2023-01-13T06:24:34.208Z,8.12
2023-01-13T06:25:34.199Z,8.16
2023-01-13T06:26:34.197Z,8.18
2023-01-13T06:27:34.188Z,8.20
2023-01-13T06:28:34.177Z,8.20
2023-01-13T06:29:34.174Z,8.23
2023-01-13T06:30:34.139Z,8.25
2023-01-13T06:31:34.157Z,8.22
2023-01-13T06:32:34.130Z,8.23
2023-01-13T06:33:34.136Z,8.29
2023-01-13T06:34:34.124Z,8.28
2023-01-13T06:35:34.091Z,8.29
2023-01-13T06:36:34.087Z,8.30
2023-01-13T06:37:34.078Z,8.33
2023-01-13T06:38:34.057Z,8.37
2023-01-13T06:39:34.068Z,8.38
2023-01-13T06:40:34.058Z,8.44
2023-01-13T06:41:34.049Z,8.43
2023-01-13T06:42:34.024Z,8.40
2023-01-13T06:43:34.028Z,8.38
2023-01-13T06:44:34.001Z,8.38
2023-01-13T06:45:34.013Z,8.40
2023-01-13T06:46:34.033Z,8.41
2023-01-13T06:47:33.997Z,8.45
2023-01-13T06:48:33.940Z,8.48
2023-01-13T06:49:33.971Z,8.47
2023-01-13T06:50:33.934Z,8.47
2023-01-13T06:51:33.922Z,8.53
2023-01-13T06:52:33.923Z,8.62
2023-01-13T06:53:33.920Z,8.65
2023-01-13T06:54:33.884Z,8.65
2023-01-13T06:55:33.882Z,8.63
2023-01-13T06:56:33.872Z,8.62
2023-01-13T06:57:33.866Z,8.59
2023-01-13T06:58:33.855Z,8.63
2023-01-13T06:59:33.834Z,8.62
2023-01-13T07:00:33.917Z,8.58
2023-01-13T07:01:33.970Z,8.56
2023-01-13T07:02:33.846Z,8.55
2023-01-13T07:03:33.797Z,8.55
2023-01-13T07:04:33.791Z,8.58
2023-01-13T07:05:33.774Z,8.66
2023-01-13T07:06:33.754Z,8.68
2023-01-13T07:07:33.761Z,8.73
2023-01-13T07:08:33.735Z,8.95
2023-01-13T07:09:33.756Z,9.01
2023-01-13T07:10:34.185Z,8.98
2023-01-13T07:11:33.843Z,8.99
2023-01-13T07:12:33.694Z,9.04
2023-01-13T07:13:33.689Z,9.05
2023-01-13T07:14:33.670Z,8.99
2023-01-13T07:15:33.672Z,8.96
2023-01-13T07:16:33.726Z,8.94
2023-01-13T07:17:33.652Z,8.87
2023-01-13T07:18:33.622Z,8.81
2023-01-13T07:19:33.654Z,8.80
2023-01-13T07:20:33.608Z,8.71
2023-01-13T07:21:33.601Z,8.62
2023-01-13T07:22:33.585Z,8.58
2023-01-13T07:23:33.594Z,8.53
2023-01-13T07:24:33.557Z,8.50
2023-01-13T07:25:33.557Z,8.50
2023-01-13T07:26:33.557Z,8.50
2023-01-13T07:27:33.537Z,8.44
2023-01-13T07:28:33.523Z,8.41
2023-01-13T07:29:33.512Z,8.43
2023-01-13T07:30:33.499Z,8.47
2023-01-13T07:31:33.510Z,8.45
2023-01-13T07:32:33.483Z,8.44
2023-01-13T07:33:33.552Z,8.44
2023-01-13T07:34:33.466Z,8.43
2023-01-13T07:35:33.484Z,8.41
2023-01-13T07:36:33.442Z,8.41
2023-01-13T07:37:33.450Z,8.43
2023-01-13T07:38:33.421Z,8.41
2023-01-13T07:39:33.498Z,8.40
2023-01-13T07:40:33.399Z,8.40
2023-01-13T07:41:33.410Z,8.41
2023-01-13T07:42:33.371Z,8.44
2023-01-13T07:43:33.487Z,8.50
2023-01-13T07:44:33.371Z,8.52
2023-01-13T07:45:33.449Z,8.53
2023-01-13T07:46:33.345Z,8.52
2023-01-13T07:47:33.330Z,8.48
2023-01-13T07:48:33.294Z,8.47
2023-01-13T07:49:33.309Z,8.48
2023-01-13T07:50:34.306Z,8.48
2023-01-13T07:51:33.287Z,8.45
2023-01-13T07:52:33.281Z,8.43
2023-01-13T07:53:33.269Z,8.37
2023-01-13T07:54:40.649Z,8.34
2023-01-13T07:55:34.221Z,8.28
2023-01-13T07:56:33.229Z,8.20
2023-01-13T07:57:33.218Z,8.15
2023-01-13T07:58:33.195Z,8.07
2023-01-13T07:59:33.182Z,8.01
2023-01-13T08:00:33.180Z,8.00
2023-01-13T08:01:33.304Z,7.95
2023-01-13T08:02:33.304Z,7.95
2023-01-13T08:03:33.156Z,7.89
2023-01-13T08:04:33.129Z,7.89
2023-01-13T08:05:33.149Z,8.00
2023-01-13T08:06:33.200Z,8.07
2023-01-13T08:07:33.198Z,8.01
2023-01-13T08:08:33.129Z,7.92
2023-01-13T08:09:33.110Z,7.89
2023-01-13T08:10:33.093Z,7.97
2023-01-13T08:11:33.085Z,7.90
2023-01-13T08:12:33.080Z,7.86
2023-01-13T08:13:33.031Z,7.83
2023-01-13T08:14:33.031Z,7.80
2023-01-13T08:15:33.010Z,7.74
2023-01-13T08:16:33.026Z,7.69
2023-01-13T08:17:33.056Z,7.68
2023-01-13T08:18:32.978Z,7.67
2023-01-13T08:19:32.978Z,7.67
2023-01-13T08:20:33.013Z,7.68
2023-01-13T08:21:32.952Z,7.69
2023-01-13T08:22:33.197Z,7.67
2023-01-13T08:23:32.950Z,7.69
2023-01-13T08:24:32.973Z,7.71
2023-01-13T08:25:32.923Z,7.75
2023-01-13T08:26:32.893Z,7.77
2023-01-13T08:27:32.911Z,7.75
2023-01-13T08:28:32.865Z,7.79
2023-01-13T08:29:32.863Z,7.82
2023-01-13T08:30:32.898Z,7.80
2023-01-13T08:31:32.878Z,7.85
2023-01-13T08:32:32.866Z,7.87
2023-01-13T08:33:32.823Z,7.89
2023-01-13T08:34:32.834Z,7.92
2023-01-13T08:35:32.803Z,7.98
2023-01-13T08:36:32.787Z,8.04
2023-01-13T08:37:32.794Z,8.10
2023-01-13T08:38:32.764Z,8.11
2023-01-13T08:39:32.747Z,8.08
2023-01-13T08:40:32.741Z,8.10
2023-01-13T08:41:32.743Z,8.12
2023-01-13T08:42:32.723Z,8.18
2023-01-13T08:43:32.704Z,8.19
2023-01-13T08:44:32.740Z,8.19
2023-01-13T08:45:32.701Z,8.20
2023-01-13T08:46:32.702Z,8.22
2023-01-13T08:47:32.695Z,8.30
2023-01-13T08:48:32.677Z,8.37
2023-01-13T08:49:32.650Z,8.38
2023-01-13T08:50:32.631Z,8.40
2023-01-13T08:51:32.631Z,8.41
2023-01-13T08:52:32.626Z,8.48
2023-01-13T08:53:32.608Z,8.62
2023-01-13T08:54:32.618Z,8.68
2023-01-13T08:55:32.576Z,8.68
2023-01-13T08:56:35.326Z,8.73
2023-01-13T08:57:32.566Z,8.79
2023-01-13T08:58:32.550Z,8.79
2023-01-13T08:59:32.537Z,8.84
2023-01-13T09:00:32.524Z,8.87
2023-01-13T09:01:32.591Z,8.87
2023-01-13T09:02:32.631Z,8.86
2023-01-13T09:03:32.490Z,8.87
2023-01-13T09:04:32.514Z,8.89
2023-01-13T09:05:32.480Z,8.96
2023-01-13T09:06:32.471Z,9.08
2023-01-13T09:07:32.465Z,9.08
2023-01-13T09:08:32.487Z,9.10
2023-01-13T09:09:32.428Z,9.13
2023-01-13T09:10:32.455Z,9.17
2023-01-13T09:11:32.400Z,9.21
2023-01-13T09:12:32.406Z,9.23
2023-01-13T09:13:32.380Z,9.18
2023-01-13T09:14:32.391Z,9.21
2023-01-13T09:15:32.410Z,9.24
2023-01-13T09:16:32.383Z,9.32
2023-01-13T09:17:32.377Z,9.35
2023-01-13T09:18:32.353Z,9.35
2023-01-13T09:19:32.356Z,9.32
2023-01-13T09:20:32.312Z,9.29
2023-01-13T09:21:32.294Z,9.33
2023-01-13T09:22:32.305Z,9.32
2023-01-13T09:23:32.273Z,9.39
2023-01-13T09:24:32.276Z,9.42
2023-01-13T09:25:32.244Z,9.50
2023-01-13T09:26:32.263Z,9.57
2023-01-13T09:27:32.235Z,9.58
2023-01-13T09:28:32.243Z,9.54
2023-01-13T09:29:32.216Z,9.57
2023-01-13T09:30:32.196Z,9.58
2023-01-13T09:31:32.249Z,9.64
2023-01-13T09:32:32.207Z,9.61
2023-01-13T09:33:32.175Z,9.64
2023-01-13T09:34:32.155Z,9.66
2023-01-13T09:35:32.164Z,9.66
2023-01-13T09:36:32.147Z,9.68
2023-01-13T09:37:32.146Z,9.68
2023-01-13T09:38:32.116Z,9.69
2023-01-13T09:39:32.133Z,9.74
2023-01-13T09:40:32.129Z,9.72
2023-01-13T09:41:32.085Z,9.74
2023-01-13T09:42:32.078Z,9.75
2023-01-13T09:43:32.073Z,9.76
2023-01-13T09:44:32.055Z,9.79
2023-01-13T09:45:32.037Z,9.81
2023-01-13T09:46:32.104Z,9.83
2023-01-13T09:47:32.039Z,9.83
2023-01-13T09:48:32.023Z,9.86
2023-01-13T09:49:32.024Z,9.87
2023-01-13T09:50:31.995Z,9.89
2023-01-13T09:51:32.051Z,9.93
2023-01-13T09:52:31.979Z,9.94
2023-01-13T09:53:31.957Z,9.94
2023-01-13T09:54:31.941Z,9.97
2023-01-13T09:55:31.927Z,10.01
2023-01-13T09:56:31.921Z,10.01
2023-01-13T09:57:31.908Z,10.02
2023-01-13T09:58:31.912Z,10.02
2023-01-13T09:59:31.892Z,10.05
2023-01-13T10:00:31.885Z,10.08
2023-01-13T10:01:31.900Z,10.11
2023-01-13T10:02:31.885Z,10.12
2023-01-13T10:03:31.885Z,10.14
2023-01-13T10:04:31.885Z,10.17
2023-01-13T10:05:31.841Z,10.18
2023-01-13T10:06:31.812Z,10.18
2023-01-13T10:07:31.821Z,10.22
2023-01-13T10:08:31.800Z,10.23
2023-01-13T10:09:31.771Z,10.27
2023-01-13T10:10:31.789Z,10.30
2023-01-13T10:11:31.766Z,10.33
2023-01-13T10:12:31.763Z,10.38
2023-01-13T10:13:31.748Z,10.42
2023-01-13T10:14:31.732Z,10.44
2023-01-13T10:15:31.723Z,10.51
2023-01-13T10:16:31.733Z,10.53
2023-01-13T10:17:31.699Z,10.60
2023-01-13T10:18:31.702Z,10.66
2023-01-13T10:19:31.703Z,10.71
2023-01-13T10:20:31.668Z,10.70
2023-01-13T10:21:31.645Z,10.74
2023-01-13T10:22:31.674Z,10.76
2023-01-13T10:23:31.635Z,10.79
2023-01-13T10:24:31.642Z,10.84
2023-01-13T10:25:31.605Z,10.81
2023-01-13T10:26:31.624Z,10.88
2023-01-13T10:27:31.578Z,10.81
2023-01-13T10:28:31.600Z,10.81
2023-01-13T10:29:31.578Z,10.76
2023-01-13T10:30:31.725Z,10.68
2023-01-13T10:31:31.608Z,10.70
2023-01-13T10:32:31.535Z,10.68
2023-01-13T10:33:31.559Z,10.78
2023-01-13T10:34:31.519Z,10.74
2023-01-13T10:35:31.509Z,10.76
2023-01-13T10:36:31.519Z,10.84
2023-01-13T10:37:31.512Z,10.88
2023-01-13T10:38:31.487Z,10.86
2023-01-13T10:39:31.449Z,10.88
2023-01-13T10:40:31.442Z,10.88
2023-01-13T10:41:31.436Z,10.78
2023-01-13T10:42:31.409Z,10.79
2023-01-13T10:43:31.431Z,10.76
2023-01-13T10:44:31.392Z,10.73
2023-01-13T10:45:31.395Z,10.71
2023-01-13T10:46:31.423Z,10.67
2023-01-13T10:47:31.371Z,10.59
2023-01-13T10:48:31.361Z,10.56
2023-01-13T10:49:31.396Z,10.64
2023-01-13T10:50:31.351Z,10.74
2023-01-13T10:51:31.329Z,10.84
2023-01-13T10:52:31.334Z,10.92
2023-01-13T10:53:31.318Z,10.92
2023-01-13T10:54:31.305Z,10.91
2023-01-13T10:55:31.310Z,10.91
2023-01-13T10:56:31.271Z,10.91
2023-01-13T10:57:31.283Z,10.92
2023-01-13T10:58:31.266Z,11.02
2023-01-13T10:59:31.255Z,11.14
2023-01-13T11:00:31.240Z,11.25
2023-01-13T11:01:31.367Z,11.35
2023-01-13T11:02:31.297Z,11.32
2023-01-13T11:03:31.207Z,11.25
2023-01-13T11:04:31.209Z,11.21
2023-01-13T11:05:31.173Z,11.28
2023-01-13T11:06:31.155Z,11.24
2023-01-13T11:07:31.170Z,11.21
2023-01-13T11:08:31.150Z,11.18
2023-01-13T11:09:31.153Z,11.11
2023-01-13T11:10:31.127Z,11.06
2023-01-13T11:11:31.193Z,11.02
2023-01-13T11:12:31.088Z,10.96
2023-01-13T11:13:31.112Z,10.91
2023-01-13T11:14:31.069Z,10.89
2023-01-13T11:15:31.104Z,10.84
2023-01-13T11:16:31.166Z,10.84
2023-01-13T11:17:31.047Z,10.84
2023-01-13T11:18:31.030Z,10.86
2023-01-13T11:19:31.021Z,10.86
2023-01-13T11:20:31.036Z,10.89
2023-01-13T11:21:30.992Z,10.97
2023-01-13T11:22:30.985Z,11.04
2023-01-13T11:23:31.066Z,11.17
2023-01-13T11:24:31.034Z,11.22
2023-01-13T11:25:30.950Z,11.39
2023-01-13T11:26:31.023Z,11.54
2023-01-13T11:27:30.935Z,11.58
2023-01-13T11:28:30.962Z,11.64
2023-01-13T11:29:30.914Z,11.58
2023-01-13T11:30:30.912Z,11.58
2023-01-13T11:31:30.910Z,11.61
2023-01-13T11:32:30.924Z,11.60
2023-01-13T11:33:30.877Z,11.44
2023-01-13T11:34:30.855Z,11.33
2023-01-13T11:35:30.846Z,11.21
2023-01-13T11:36:30.865Z,11.18
2023-01-13T11:37:30.829Z,11.11
2023-01-13T11:38:30.825Z,11.09
2023-01-13T11:39:30.798Z,11.00
2023-01-13T11:40:30.795Z,11.02
2023-01-13T11:41:30.802Z,11.02
2023-01-13T11:42:30.763Z,11.00
2023-01-13T11:43:30.786Z,10.99
2023-01-13T11:44:30.769Z,11.00
2023-01-13T11:45:30.746Z,10.99
2023-01-13T11:46:30.840Z,10.99
2023-01-13T11:47:30.720Z,11.10
2023-01-13T11:48:30.705Z,11.15
2023-01-13T11:49:30.690Z,11.27
2023-01-13T11:50:30.678Z,11.33
2023-01-13T11:51:30.677Z,11.43
2023-01-13T11:52:30.666Z,11.44
2023-01-13T11:53:30.684Z,11.46
2023-01-13T11:54:30.630Z,11.32
2023-01-13T11:55:30.642Z,11.17
2023-01-13T11:56:30.623Z,11.07
2023-01-13T11:57:30.600Z,11.07
2023-01-13T11:58:33.759Z,11.04
2023-01-13T11:59:31.607Z,11.03
2023-01-13T12:00:30.561Z,11.02
2023-01-13T12:01:30.595Z,10.99
2023-01-13T12:02:30.566Z,10.96
2023-01-13T12:03:30.607Z,10.94
2023-01-13T12:04:30.534Z,10.88
2023-01-13T12:05:30.541Z,10.84
2023-01-13T12:06:30.533Z,10.74
2023-01-13T12:07:30.498Z,10.51
2023-01-13T12:08:30.503Z,10.38
2023-01-13T12:09:30.468Z,10.23
2023-01-13T12:10:30.471Z,10.07
2023-01-13T12:11:30.452Z,10.01
2023-01-13T12:12:30.453Z,9.94
2023-01-13T12:13:30.486Z,9.86
2023-01-13T12:14:30.438Z,9.83
2023-01-13T12:15:30.405Z,9.78
2023-01-13T12:16:30.532Z,9.81
2023-01-13T12:17:30.385Z,9.79
2023-01-13T12:18:30.420Z,9.83
2023-01-13T12:19:30.382Z,9.84
2023-01-13T12:20:30.356Z,9.87
2023-01-13T12:21:30.334Z,9.89
2023-01-13T12:22:30.341Z,9.90
2023-01-13T12:23:30.317Z,9.89
2023-01-13T12:24:30.307Z,9.90
2023-01-13T12:25:30.364Z,9.87
2023-01-13T12:26:30.355Z,9.86
2023-01-13T12:27:30.278Z,9.86
2023-01-13T12:28:30.297Z,9.87
2023-01-13T12:29:30.253Z,9.87
2023-01-13T12:30:30.248Z,9.87
2023-01-13T12:31:30.285Z,9.89
2023-01-13T12:32:30.237Z,9.87
2023-01-13T12:33:30.219Z,9.87
2023-01-13T12:34:30.252Z,9.89
2023-01-13T12:35:30.196Z,9.91
2023-01-13T12:36:30.181Z,9.99
2023-01-13T12:37:30.182Z,10.05
2023-01-13T12:38:30.170Z,10.17
2023-01-13T12:39:30.159Z,10.27
2023-01-13T12:40:30.187Z,10.40
2023-01-13T12:41:30.122Z,10.47
2023-01-13T12:42:30.119Z,10.51
2023-01-13T12:43:30.108Z,10.53
2023-01-13T12:44:30.105Z,10.51
2023-01-13T12:45:30.183Z,10.51
2023-01-13T12:46:30.073Z,10.47
2023-01-13T12:47:30.061Z,10.45
2023-01-13T12:48:30.051Z,10.44
2023-01-13T12:49:30.050Z,10.45
2023-01-13T12:50:30.062Z,10.47
2023-01-13T12:51:30.012Z,10.45
2023-01-13T12:52:30.014Z,10.41
2023-01-13T12:53:30.003Z,10.40
2023-01-13T12:54:29.993Z,10.38
2023-01-13T12:55:29.964Z,10.34
2023-01-13T12:56:30.005Z,10.33
2023-01-13T12:57:29.944Z,10.30
2023-01-13T12:58:29.945Z,10.30
2023-01-13T12:59:29.933Z,10.27
2023-01-13T13:00:29.915Z,10.25
2023-01-13T13:01:29.964Z,10.23
2023-01-13T13:02:29.923Z,10.25
2023-01-13T13:03:29.901Z,10.23
2023-01-13T13:04:29.881Z,10.22
2023-01-13T13:05:29.938Z,10.23
2023-01-13T13:06:29.845Z,10.23
2023-01-13T13:07:29.849Z,10.23
2023-01-13T13:08:29.845Z,10.23